• Join FlightAware (Why Join?)
  • Login
  • US Flag 
Gobble Gobble! 
01:41PM EST


 

Airport Tracker/Info


-or-


 

Live Flight TrackerFlight Track Log ✈ UAL1177 ✈ 25-May-2013 ✈ KBOS - KDEN

Flight Track Log - Related Links

Times and Time Zones

All times are in EDT time to prevent confusion due to time zone crossing. See the UAL1177 flight status page for this flight to view local times or setup timezone preferences in your user account.

Time Position Orientation Groundspeed Altitude Reporting Facility
EDT Latitude Longitude Course Direction KTS MPH feet Rate Location/Type
04:19PM 42.3090 -71.0920 218° Southwest 242 278 3,600  Level FlightAware
04:19PM 42.2960 -71.1060 219° Southwest 246 283 4,000 1,500 Climbing FlightAware
04:20PM 42.2820 -71.1320 234° Southwest 274 315 4,600 1,920 Climbing FlightAware
04:21PM 42.2830 -71.1820 272° West 273 314 6,100 2,520 Climbing FlightAware
04:21PM 42.2950 -71.2160 296° West 281 323 7,200 4,080 Climbing FlightAware
04:21PM 42.3530 -71.2460 339° North 279 321 9,800 2,880 Climbing FlightAware
04:22PM 42.4120 -71.2600 350° North 323 372 10,900 1,980 Climbing FlightAware
04:23PM 42.4770 -71.2620 359° North 347 399 12,600 1,860 Climbing FlightAware
04:24PM 42.5560 -71.2650 358° North 393 452 13,600 1,800 Climbing FlightAware
04:24PM 42.6310 -71.2690 358° North 407 468 15,200 2,520 Climbing FlightAware
04:25PM 42.7070 -71.2730 358° North 413 475 17,000 2,220 Climbing FlightAware
04:26PM 42.7640 -71.3120 333° Northwest 419 482 18,000 1,800 Climbing FlightAware
04:26PM 42.7920 -71.3800 299° West 426 490 19,000 2,040 Climbing FlightAware
04:27PM 42.8030 -71.4900 278° West 438 504 20,400 1,980 Climbing FlightAware
04:27PM 42.8130 -71.6030 277° West 449 517 21,700 1,980 Climbing FlightAware
04:28PM 42.8240 -71.7160 278° West 452 520 23,100 1,800 Climbing FlightAware
04:29PM 42.8350 -71.8410 277° West 460 529 24,300 1,620 Climbing FlightAware
04:29PM 42.8460 -71.9550 278° West 462 532 25,500 1,620 Climbing FlightAware
04:30PM 42.8580 -72.0900 277° West 468 539 26,600 1,320 Climbing FlightAware
04:31PM 42.8690 -72.2090 277° West 477 549 27,400 1,200 Climbing FlightAware
04:32PM 42.8810 -72.3390 277° West 483 556 28,300 1,260 Climbing FlightAware
04:32PM 42.8930 -72.4710 277° West 486 559 29,300 1,440 Climbing FlightAware
04:33PM 42.9030 -72.5890 277° West 483 556 30,300 1,020 Climbing FlightAware
04:34PM 42.9140 -72.7190 277° West 484 557 30,700 240 Climbing FlightAware
04:34PM 42.9220 -72.8220 276° West 484 557 30,700 180 Level FlightAware
04:35PM 42.9260 -72.8710 276° West 479 551 31,000 120 Climbing FlightAware
04:36PM 42.9360 -72.9940 276° West 479 551 31,000  Level FlightAware
04:37PM 42.9430 -73.0860 276° West 479 551 31,000  Level FlightAware
04:37PM 42.9520 -73.2090 276° West 479 551 31,000  Level FlightAware
04:38PM 42.9810 -73.5360 277° West 484 557 31,000  Level FlightAware
04:39PM 42.9910 -73.6650 276° West 484 557 31,000  Level FlightAware
04:40PM 42.9980 -73.7580 276° West 484 557 31,000  Level FlightAware
04:41PM 43.0120 -73.9300 276° West 484 557 31,000  Level FlightAware
04:41PM 43.0190 -74.0290 276° West 484 557 31,000  Level FlightAware
04:42PM 43.0270 -74.1540 275° West 484 557 31,000  Level FlightAware
04:43PM 43.0330 -74.2490 275° West 484 557 31,000  Level FlightAware
04:43PM 43.0390 -74.3450 275° West 484 557 31,000  Level FlightAware
04:44PM 43.0470 -74.4700 275° West 484 557 31,000 660 Level FlightAware
04:45PM 43.0710 -74.7430 277° West 479 551 32,000 720 Climbing FlightAware
04:45PM 43.0770 -74.8400 275° West 479 551 32,000  Level FlightAware
04:46PM 43.0870 -74.9870 275° West 474 545 32,000  Level FlightAware
04:47PM 43.0940 -75.1050 275° West 473 544 32,000  Level FlightAware
04:48PM 43.1010 -75.2400 274° West 472 543 32,000  Level FlightAware
04:48PM 43.1070 -75.3560 274° West 471 542 32,000  Level FlightAware
04:49PM 43.1140 -75.4850 274° West 469 540 32,000  Level FlightAware
04:50PM 43.1220 -75.6490 274° West 465 535 32,000  Level FlightAware
04:51PM 43.1280 -75.7570 274° West 462 532 32,000  Level FlightAware
04:51PM 43.1340 -75.9000 273° West 459 528 32,000  Level FlightAware
04:52PM 43.1400 -76.0130 274° West 458 527 32,000  Level FlightAware
04:53PM 43.1450 -76.1320 273° West 459 528 32,000  Level FlightAware
04:53PM 43.1510 -76.2610 274° West 458 527 32,000  Level FlightAware
04:54PM 43.1560 -76.3850 273° West 458 527 32,000  Level FlightAware
04:55PM 43.1620 -76.5070 274° West 457 526 32,000  Level FlightAware
04:56PM 43.1670 -76.6360 273° West 457 526 32,000  Level FlightAware
04:56PM 43.1720 -76.7530 273° West 457 526 32,000  Level FlightAware
04:57PM 43.1760 -76.8690 273° West 457 526 32,000  Level FlightAware
04:58PM 43.1820 -77.0000 274° West 458 527 32,000  Level FlightAware
04:58PM 43.1860 -77.1110 273° West 454 522 32,000  Level FlightAware
04:59PM 43.1900 -77.2280 273° West 454 522 32,000  Level FlightAware
05:00PM 43.1940 -77.3430 273° West 454 522 32,000  Level FlightAware
05:00PM 43.1980 -77.4740 272° West 454 522 32,000  Level FlightAware
05:01PM 43.2030 -77.6030 273° West 454 522 32,000  Level FlightAware
05:02PM 43.2060 -77.7170 272° West 453 521 32,000  Level FlightAware
05:03PM 43.2100 -77.8320 273° West 452 520 32,000  Level FlightAware
05:03PM 43.2140 -77.9600 272° West 447 514 32,000  Level FlightAware
05:04PM 43.2170 -78.0730 272° West 446 513 32,000  Level FlightAware
05:05PM 43.2200 -78.1850 272° West 444 511 32,000  Level FlightAware
05:05PM 43.2240 -78.3100 273° West 442 509 32,000  Level FlightAware
05:06PM 43.2260 -78.4220 271° West 441 507 32,000  Level FlightAware
05:07PM 43.2300 -78.5440 273° West 441 507 32,000  Level FlightAware
05:07PM 43.2320 -78.6600 271° West 440 506 32,000  Level FlightAware
05:08PM 43.2350 -78.7830 272° West 432 497 32,000  Level FlightAware
05:09PM 43.2380 -78.8930 272° West 430 495 32,000  Level FlightAware
05:10PM 43.2400 -79.0090 271° West 426 490 32,000  Level FlightAware
05:10PM 43.2420 -79.1080 272° West 424 488 32,000  Level FlightAware
05:11PM 43.2440 -79.2330 271° West 421 484 32,000  Level FlightAware
05:12PM 43.2460 -79.3550 271° West 418 481 32,000  Level FlightAware
05:12PM 43.2480 -79.4550 272° West 416 479 32,000  Level FlightAware
05:13PM 43.2500 -79.5620 272° West 416 479 32,000  Level FlightAware
05:14PM 43.2520 -79.6630 272° West 419 482 32,000  Level FlightAware
05:15PM 43.2530 -79.7940 271° West 420 483 32,000  Level FlightAware
05:15PM 43.2550 -79.9260 271° West 420 483 32,000  Level FlightAware
05:16PM 43.2560 -80.0310 271° West 419 482 32,000  Level FlightAware
05:17PM 43.2580 -80.1470 271° West 418 481 32,000  Level FlightAware
05:17PM 43.2590 -80.2650 271° West 418 481 32,000  Level FlightAware
05:18PM 43.2600 -80.3720 271° West 419 482 32,000  Level FlightAware
05:19PM 43.2610 -80.4800 271° West 419 482 32,000  Level FlightAware
05:20PM 43.2620 -80.6190 271° West 419 482 32,000  Level FlightAware
05:20PM 43.2630 -80.7370 271° West 420 483 32,000  Level FlightAware
05:21PM 43.2630 -80.8450 270° West 419 482 32,000  Level FlightAware
05:22PM 43.2630 -80.9510 270° West 418 481 32,000  Level FlightAware
05:23PM 43.2640 -81.0700 271° West 416 479 32,000  Level FlightAware
05:23PM 43.2640 -81.1740 270° West 416 479 32,000  Level FlightAware
05:24PM 43.2640 -81.2910 270° West 416 479 32,000  Level FlightAware
05:25PM 43.2640 -81.4390 270° West 416 479 32,000  Level FlightAware
05:26PM 43.2630 -81.5290 269° West 416 479 32,000  Level FlightAware
05:26PM 43.2640 -81.6870 271° West 414 476 32,000  Level FlightAware
05:27PM 43.2630 -81.8040 269° West 413 475 32,000  Level FlightAware
05:28PM 43.2630 -81.9030 270° West 412 474 32,000  Level FlightAware
05:29PM 43.2620 -82.0460 269° West 409 471 32,000  Level FlightAware
05:29PM 43.2610 -82.1420 269° West 408 470 32,000  Level FlightAware
05:30PM 43.2600 -82.2900 270° West 407 468 32,000  Level FlightAware
05:31PM 43.2590 -82.4210 269° West 407 468 32,000  Level FlightAware
05:32PM 43.2580 -82.5320 269° West 407 468 32,000  Level FlightAware
05:33PM 43.2570 -82.6450 269° West 409 471 32,000  Level FlightAware
05:33PM 43.2560 -82.7250 269° West 409 471 32,000  Level FlightAware
05:34PM 43.2560 -82.8430 270° West 410 472 32,000  Level FlightAware
05:35PM 43.2560 -82.9290 270° West 410 472 32,000  Level FlightAware
05:35PM 43.2560 -82.9660 270° West 411 473 32,000  Level FlightAware
05:36PM 43.2550 -83.1640 270° West 412 474 32,000  Level FlightAware
05:37PM 43.2540 -83.2740 269° West 413 475 32,000  Level FlightAware
05:37PM 43.2530 -83.3810 269° West 413 475 32,000  Level FlightAware
05:38PM 43.2530 -83.4890 270° West 413 475 32,000  Level FlightAware
05:39PM 43.2520 -83.6010 269° West 412 474 32,000  Level FlightAware
05:39PM 43.2510 -83.6930 269° West 412 474 32,000  Level FlightAware
05:40PM 43.2500 -83.8430 270° West 411 473 32,000  Level FlightAware
05:41PM 43.2480 -83.9930 269° West 411 473 32,000  Level FlightAware
05:42PM 43.2470 -84.0950 269° West 411 473 32,000  Level FlightAware
05:43PM 43.2450 -84.2110 269° West 411 473 32,000  Level FlightAware
05:43PM 43.2440 -84.3150 269° West 412 474 32,000  Level FlightAware
05:44PM 43.2420 -84.4250 269° West 413 475 32,000  Level FlightAware
05:45PM 43.2400 -84.5410 269° West 414 476 32,000  Level FlightAware
05:45PM 43.2380 -84.6470 269° West 416 479 32,000  Level FlightAware
05:46PM 43.2370 -84.7470 269° West 417 480 32,000  Level FlightAware
05:47PM 43.2340 -84.8680 268° West 416 479 32,000  Level FlightAware
05:47PM 43.2320 -84.9780 269° West 415 478 32,000  Level FlightAware
05:48PM 43.2300 -85.0930 269° West 413 475 32,000  Level FlightAware
05:49PM 43.2270 -85.1890 268° West 412 474 32,000  Level FlightAware
05:50PM 43.2250 -85.3120 269° West 411 473 32,000  Level FlightAware
05:50PM 43.2220 -85.4150 268° West 411 473 32,000  Level FlightAware
05:51PM 43.2220 -85.5240 270° West 413 475 32,000  Level FlightAware
05:52PM 43.2220 -85.6310 270° West 414 476 32,000  Level FlightAware
05:52PM 43.2220 -85.7440 270° West 414 476 32,000  Level FlightAware
05:53PM 43.2220 -85.8480 270° West 415 478 32,000  Level FlightAware
05:54PM 43.2220 -85.9670 270° West 415 478 32,000  Level FlightAware
05:55PM 43.2210 -86.1100 269° West 416 479 32,000  Level FlightAware
05:55PM 43.2210 -86.2230 270° West 417 480 32,000  Level FlightAware
05:56PM 43.2200 -86.3300 269° West 417 480 32,000  Level FlightAware
05:57PM 43.2190 -86.4210 269° West 417 480 32,000  Level FlightAware
05:57PM 43.2180 -86.5500 269° West 418 481 32,000  Level FlightAware
05:58PM 43.2170 -86.6600 269° West 419 482 32,000  Level FlightAware
05:59PM 43.2160 -86.7760 269° West 420 483 32,000  Level FlightAware
06:00PM 43.2150 -86.8770 269° West 421 484 32,000  Level FlightAware
06:01PM 43.2130 -87.0810 269° West 421 484 32,000  Level FlightAware
06:02PM 43.2110 -87.1880 269° West 422 486 32,000  Level FlightAware
06:02PM 43.2100 -87.3050 269° West 422 486 32,000  Level FlightAware
06:03PM 43.2080 -87.4190 269° West 424 488 32,000  Level FlightAware
06:04PM 43.2060 -87.5260 269° West 426 490 32,000  Level FlightAware
06:04PM 43.2040 -87.6460 269° West 428 493 32,000  Level FlightAware
06:05PM 43.2010 -87.7880 268° West 430 495 32,000  Level FlightAware
06:06PM 43.1990 -87.9150 269° West 431 496 32,000  Level FlightAware
06:07PM 43.1970 -88.0210 269° West 430 495 32,000  Level FlightAware
06:07PM 43.1940 -88.1340 268° West 430 495 32,000  Level FlightAware
06:08PM 43.1920 -88.2590 269° West 430 495 32,000  Level FlightAware
06:09PM 43.1890 -88.3640 268° West 431 496 32,000  Level FlightAware
06:09PM 43.1860 -88.4870 268° West 431 496 32,000  Level FlightAware
06:11PM 43.1840 -88.5610 268° West 431 496 32,000  Level FlightAware
06:11PM 43.1780 -88.7840 268° West 434 499 32,000  Level FlightAware
06:12PM 43.1750 -88.9000 268° West 435 501 32,000  Level FlightAware
06:13PM 43.1720 -88.9990 268° West 436 502 32,000  Level FlightAware
06:13PM 43.1680 -89.1290 268° West 437 503 32,000  Level FlightAware
06:14PM 43.1640 -89.2420 267° West 437 503 32,000  Level FlightAware
06:15PM 43.1610 -89.3640 268° West 432 497 32,000  Level FlightAware
06:16PM 43.1570 -89.4810 267° West 432 497 32,000  Level FlightAware
06:16PM 43.1530 -89.5920 267° West 433 498 32,000  Level FlightAware
06:17PM 43.1490 -89.7050 267° West 435 501 32,000  Level FlightAware
06:18PM 43.1450 -89.8250 267° West 437 503 32,000  Level FlightAware
06:18PM 43.1400 -89.9370 267° West 432 497 32,000  Level FlightAware
06:19PM 43.1360 -90.0600 267° West 432 497 32,000  Level FlightAware
06:20PM 43.1310 -90.1690 266° West 431 496 32,000  Level FlightAware
06:20PM 43.1270 -90.2840 267° West 430 495 32,000  Level FlightAware
06:21PM 43.1220 -90.3910 266° West 429 494 32,000  Level FlightAware
06:22PM 43.1170 -90.5040 267° West 427 491 32,000  Level FlightAware
06:23PM 43.1120 -90.6200 267° West 425 489 32,000  Level FlightAware
06:23PM 43.1080 -90.7290 267° West 424 488 32,000  Level FlightAware
06:24PM 43.1030 -90.8360 266° West 422 486 32,000  Level FlightAware
06:25PM 43.0970 -90.9570 266° West 421 484 32,000  Level FlightAware
06:26PM 43.0870 -91.1790 267° West 422 486 32,000  Level FlightAware
06:27PM 43.0810 -91.2980 266° West 423 487 32,000  Level FlightAware
06:27PM 43.0750 -91.4070 266° West 425 489 32,000  Level FlightAware
06:28PM 43.0700 -91.5190 267° West 426 490 32,000  Level FlightAware
06:29PM 43.0640 -91.6320 266° West 426 490 32,000  Level FlightAware
06:30PM 43.0580 -91.7420 266° West 426 490 32,000  Level FlightAware
06:30PM 43.0510 -91.8620 265° West 426 490 32,000  Level FlightAware
06:31PM 43.0450 -91.9710 266° West 425 489 32,000  Level FlightAware
06:32PM 43.0390 -92.0760 266° West 424 488 32,000  Level FlightAware
06:32PM 43.0330 -92.1930 266° West 423 487 32,000  Level FlightAware
06:33PM 43.0260 -92.3020 265° West 423 487 32,000  Level FlightAware
06:34PM 43.0190 -92.4220 265° West 423 487 32,000  Level FlightAware
06:34PM 43.0130 -92.5300 266° West 424 488 32,000  Level FlightAware
06:35PM 43.0030 -92.6820 265° West 425 489 32,000  Level FlightAware
06:36PM 42.9970 -92.7890 266° West 429 494 32,000  Level FlightAware
06:37PM 42.9890 -92.9090 265° West 433 498 32,000  Level FlightAware
06:37PM 42.9820 -93.0180 265° West 434 499 32,000  Level FlightAware
06:38PM 42.9740 -93.1330 265° West 435 501 32,000  Level FlightAware
06:39PM 42.9670 -93.2480 265° West 435 501 32,000  Level FlightAware
06:39PM 42.9600 -93.3460 264° West 435 501 32,000  Level FlightAware
06:40PM 42.9510 -93.4770 265° West 435 501 32,000  Level FlightAware
06:41PM 42.9430 -93.5970 265° West 437 503 32,000  Level FlightAware
06:42PM 42.9360 -93.7020 265° West 436 502 32,000  Level FlightAware
06:42PM 42.9270 -93.8240 264° West 437 503 32,000  Level FlightAware
06:43PM 42.9190 -93.9340 264° West 436 502 32,000  Level FlightAware
06:44PM 42.9110 -94.0460 264° West 436 502 32,000  Level FlightAware
06:44PM 42.9010 -94.1700 264° West 436 502 32,000  Level FlightAware
06:45PM 42.8890 -94.3250 264° West 437 503 32,000  Level FlightAware
06:46PM 42.8810 -94.4330 264° West 437 503 32,000  Level FlightAware
06:47PM 42.8720 -94.5510 264° West 438 504 32,000  Level FlightAware
06:47PM 42.8630 -94.6630 264° West 438 504 32,000  Level FlightAware
06:48PM 42.8530 -94.7850 264° West 438 504 32,000  Level FlightAware
06:49PM 42.8450 -94.8940 264° West 439 505 32,000  Level FlightAware
06:50PM 42.8360 -95.0040 264° West 439 505 32,000  Level FlightAware
06:50PM 42.8240 -95.1460 263° West 439 505 32,000  Level FlightAware
06:51PM 42.8140 -95.2680 264° West 439 505 32,000  Level FlightAware
06:52PM 42.8040 -95.3800 263° West 438 504 32,000  Level FlightAware
06:53PM 42.7940 -95.4910 263° West 436 502 32,000  Level FlightAware
06:53PM 42.7840 -95.6070 263° West 437 503 32,000  Level FlightAware
06:54PM 42.7760 -95.7040 264° West 436 502 32,000  Level FlightAware
06:55PM 42.7640 -95.8330 263° West 435 501 32,000  Level FlightAware
06:55PM 42.7540 -95.9420 263° West 435 501 32,000  Level FlightAware
06:56PM 42.7430 -96.0670 263° West 436 502 32,000  Level FlightAware
06:57PM 42.7330 -96.1750 263° West 438 504 32,000  Level FlightAware
06:57PM 42.7220 -96.2870 262° West 439 505 32,000  Level FlightAware
06:58PM 42.7110 -96.4090 263° West 440 506 32,000  Level FlightAware
06:59PM 42.7000 -96.5200 262° West 440 506 32,000  Level FlightAware
07:00PM 42.6890 -96.6370 263° West 440 506 32,000  Level FlightAware
07:00PM 42.6870 -96.6550 261° West 439 505 32,000  Level FlightAware
07:01PM 42.6680 -96.8510 263° West 438 504 32,000  Level FlightAware
07:02PM 42.6530 -96.9950 262° West 439 505 32,000  Level FlightAware
07:03PM 42.6420 -97.1020 262° West 439 505 32,000  Level FlightAware
07:03PM 42.6330 -97.1860 262° West 439 505 32,000  Level FlightAware
07:04PM 42.6220 -97.2980 262° West 439 505 32,000  Level FlightAware
07:05PM 42.6130 -97.3810 262° West 439 505 32,000  Level FlightAware
07:05PM 42.6020 -97.4860 262° West 439 505 32,000  Level FlightAware
07:06PM 42.5910 -97.5970 262° West 439 505 32,000  Level FlightAware
07:07PM 42.5820 -97.6830 262° West 439 505 32,000  Level FlightAware
07:08PM 42.5680 -97.8220 262° West 439 505 32,000  Level FlightAware
07:08PM 42.5590 -97.9060 262° West 439 505 32,000  Level FlightAware
07:09PM 42.5470 -98.0170 262° West 439 505 32,000  Level FlightAware
07:10PM 42.5380 -98.1030 262° West 439 505 32,000  Level FlightAware
07:11PM 42.5220 -98.2630 262° West 439 505 32,000  Level FlightAware
07:12PM 42.4808 -98.5986 262° West 440 506 32,000  Level Minneapolis Center
07:13PM 42.4417 -98.7539 251° West 445 512 32,000  Level Minneapolis Center
07:14PM 42.3781 -98.8953 239° Southwest 443 510 32,000  Level Minneapolis Center
07:15PM 42.3139 -99.0375 239° Southwest 444 511 32,000  Level Minneapolis Center
07:16PM 42.2506 -99.1794 239° Southwest 443 510 32,000  Level Minneapolis Center
07:17PM 42.1856 -99.3197 238° Southwest 443 510 32,000  Level Minneapolis Center
07:18PM 42.1217 -99.4619 239° Southwest 443 510 32,000  Level Minneapolis Center
07:19PM 42.0581 -99.6006 238° Southwest 439 505 32,000  Level Minneapolis Center
07:20PM 41.9833 -99.7656 239° Southwest 435 501 32,000  Level Minneapolis Center
07:21PM 41.9186 -99.9047 238° Southwest 437 503 32,000  Level Minneapolis Center
07:22PM 41.8547 -100.0442 238° Southwest 440 506 32,000  Level Minneapolis Center
07:23PM 41.7894 -100.1828 238° Southwest 440 506 32,000  Level Minneapolis Center
07:24PM 41.7231 -100.3219 237° Southwest 442 509 32,000  Level Minneapolis Center
07:25PM 41.6647 -100.4642 241° Southwest 441 507 32,000  Level Minneapolis Center
07:26PM 41.6039 -100.6492 246° West 435 501 32,000  Level Denver Center
07:31PM 41.3320 -101.4120 246° West 435 501 32,000  Level FlightAware
07:32PM 41.2738 -101.5740 244° Southwest 436 502 32,000  Level FlightAware ADS-B
07:33PM 41.2473 -101.6470 244° Southwest 436 502 32,000  Level FlightAware ADS-B
07:33PM 41.2210 -101.7190 244° Southwest 437 503 32,000  Level FlightAware ADS-B
07:34PM 41.1944 -101.7930 244° Southwest 437 503 32,000  Level FlightAware ADS-B
07:34PM 41.1678 -101.8660 244° Southwest 437 503 32,000  Level FlightAware ADS-B
07:35PM 41.1413 -101.9380 244° Southwest 439 505 32,000  Level FlightAware ADS-B
07:35PM 41.1118 -102.0180 244° Southwest 439 505 32,000  Level FlightAware ADS-B
07:36PM 41.0851 -102.0910 244° Southwest 440 506 32,000  Level FlightAware ADS-B
07:36PM 41.0570 -102.1670 244° Southwest 441 507 32,000  Level FlightAware ADS-B
07:37PM 41.0300 -102.2400 244° Southwest 440 506 32,000  Level FlightAware ADS-B
07:37PM 41.0029 -102.3130 244° Southwest 442 509 32,000  Level FlightAware ADS-B
07:38PM 40.9760 -102.3860 244° Southwest 443 510 32,000  Level FlightAware ADS-B
07:38PM 40.9482 -102.4600 244° Southwest 445 512 32,000  Level FlightAware ADS-B
07:39PM 40.9206 -102.5340 244° Southwest 444 511 32,000  Level FlightAware ADS-B
07:39PM 40.8931 -102.6080 244° Southwest 445 512 32,000  Level FlightAware ADS-B
07:40PM 40.8642 -102.6850 244° Southwest 441 507 32,000  Level FlightAware ADS-B
07:41PM 40.8367 -102.7580 244° Southwest 440 506 32,000  Level FlightAware ADS-B
07:41PM 40.8093 -102.8300 243° Southwest 440 506 32,000  Level FlightAware ADS-B
07:42PM 40.7818 -102.9030 244° Southwest 440 506 32,000  Level FlightAware ADS-B
07:42PM 40.7541 -102.9760 243° Southwest 439 505 32,000  Level FlightAware ADS-B
07:43PM 40.7265 -103.0480 243° Southwest 438 504 32,000 -600 Level FlightAware ADS-B
07:43PM 40.6996 -103.1190 243° Southwest 430 495 31,400 -1,140 Descending FlightAware ADS-B
07:44PM 40.6729 -103.1900 244° Southwest 426 490 30,900 -1,320 Descending FlightAware ADS-B
07:44PM 40.6457 -103.2610 243° Southwest 418 481 30,100 -1,980 Descending FlightAware ADS-B
07:45PM 40.6200 -103.3280 243° Southwest 410 472 28,900 -2,400 Descending FlightAware ADS-B
07:45PM 40.5945 -103.3940 243° Southwest 402 463 27,700 -2,400 Descending FlightAware ADS-B
07:46PM 40.5693 -103.4600 243° Southwest 395 455 26,500 -2,400 Descending FlightAware ADS-B
07:46PM 40.5443 -103.5240 243° Southwest 389 448 25,300 -2,340 Descending FlightAware ADS-B
07:47PM 40.5191 -103.5900 243° Southwest 382 440 24,100 -2,340 Descending FlightAware ADS-B
07:47PM 40.4943 -103.6530 243° Southwest 373 429 22,900 -2,280 Descending FlightAware ADS-B
07:48PM 40.4706 -103.7130 243° Southwest 365 420 21,800 -2,220 Descending FlightAware ADS-B
07:48PM 40.4473 -103.7740 243° Southwest 359 413 20,700 -2,220 Descending FlightAware ADS-B
07:49PM 40.4248 -103.8310 243° Southwest 351 404 19,600 -2,100 Descending FlightAware ADS-B
07:49PM 40.4025 -103.8880 243° Southwest 346 398 18,600 -1,440 Descending FlightAware ADS-B
07:50PM 40.3810 -103.9430 243° Southwest 324 373 18,200 -720 Descending FlightAware ADS-B
07:50PM 40.3663 -103.9810 243° Southwest 306 352 18,000 -480 Descending FlightAware ADS-B
07:50PM 40.3636 -103.9890 246° West 303 349 18,000 -360 Level FlightAware ADS-B
07:50PM 40.3590 -104.0100 254° West 295 339 17,900 -1,020 Descending FlightAware ADS-B
07:50PM 40.3577 -104.0210 261° West 295 339 17,700 -1,500 Descending FlightAware ADS-B
07:51PM 40.3571 -104.0320 266° West 298 343 17,600 -1,500 Descending FlightAware ADS-B
07:51PM 40.3565 -104.0880 269° West 302 348 16,800 -1,620 Descending FlightAware ADS-B
07:52PM 40.3559 -104.1440 269° West 304 350 16,000 -1,620 Descending FlightAware ADS-B
07:52PM 40.3551 -104.2000 269° West 308 354 15,200 -1,380 Descending FlightAware ADS-B
07:53PM 40.3543 -104.2560 269° West 306 352 14,600 -900 Descending FlightAware ADS-B
07:53PM 40.3536 -104.3140 269° West 293 337 14,300 -660 Descending FlightAware ADS-B
07:53PM 40.3528 -104.3250 265° West 290 334 14,200 -1,020 Descending FlightAware ADS-B
07:53PM 40.3513 -104.3340 258° West 286 329 14,100 -1,380 Descending FlightAware ADS-B
07:53PM 40.3501 -104.3400 255° West 284 327 14,000 -1,500 Descending FlightAware ADS-B
07:53PM 40.3473 -104.3480 245° Southwest 279 321 13,900 -1,380 Descending FlightAware ADS-B
07:54PM 40.3446 -104.3540 239° Southwest 276 318 13,800 -1,380 Descending FlightAware ADS-B
07:54PM 40.3411 -104.3600 233° Southwest 274 315 13,700 -1,380 Descending FlightAware ADS-B
07:54PM 40.3376 -104.3650 227° Southwest 272 313 13,600 -1,740 Descending FlightAware ADS-B
07:54PM 40.3346 -104.3680 217° Southwest 272 313 13,500 -1,740 Descending FlightAware ADS-B
07:54PM 40.3296 -104.3720 211° Southwest 272 313 13,400 -1,200 Descending FlightAware ADS-B
07:54PM 40.3076 -104.3890 211° Southwest 269 310 13,000 -960 Descending FlightAware ADS-B
07:55PM 40.2833 -104.4090 212° Southwest 259 298 12,700 -1,200 Descending FlightAware ADS-B
07:55PM 40.2600 -104.4300 215° Southwest 259 298 12,100 -1,440 Descending FlightAware ADS-B
07:55PM 40.2370 -104.4510 215° Southwest 259 298 11,600 -1,020 Descending FlightAware ADS-B
07:56PM 40.2076 -104.4770 214° Southwest 249 287 11,200 -1,200 Descending FlightAware ADS-B
07:56PM 40.1786 -104.5030 214° Southwest 254 292 10,400 -1,500 Descending FlightAware ADS-B
07:56PM 40.1688 -104.5130 218° Southwest 255 293 10,200 -1,200 Descending FlightAware ADS-B
07:57PM 40.1547 -104.5260 215° Southwest 256 295 9,900 -1,080 Descending FlightAware ADS-B
07:57PM 40.1360 -104.5430 215° Southwest 253 291 9,600 -1,080 Descending FlightAware ADS-B
07:57PM 40.1209 -104.5560 213° Southwest 247 284 9,300 -1,020 Descending FlightAware ADS-B
07:58PM 40.1083 -104.5680 216° Southwest 245 282 9,100 -1,260 Descending FlightAware ADS-B
07:58PM 40.0942 -104.5810 215° Southwest 247 284 8,700 -1,260 Descending FlightAware ADS-B
07:58PM 40.0806 -104.5940 216° Southwest 244 281 8,500 -960 Descending FlightAware ADS-B
07:58PM 40.0707 -104.6030 215° Southwest 243 280 8,300 -900 Descending FlightAware ADS-B
07:59PM 40.0555 -104.6170 215° Southwest 238 274 8,100 -780 Descending FlightAware ADS-B
07:59PM 40.0422 -104.6290 215° Southwest 227 261 7,900 -780 Descending FlightAware ADS-B
07:59PM 40.0290 -104.6410 215° Southwest 224 258 7,700 -780 Descending FlightAware ADS-B
07:59PM 40.0155 -104.6530 214° Southwest 215 247 7,500 -660 Descending FlightAware ADS-B
07:59PM 40.0066 -104.6620 218° Southwest 205 236 7,400 -720 Descending FlightAware ADS-B
08:00PM 40.0026 -104.6650 210° Southwest 200 230 7,300 -1,200 Descending FlightAware ADS-B
08:00PM 39.9941 -104.6720 212° Southwest 199 229 7,100 -780 Descending FlightAware ADS-B
08:00PM 39.9895 -104.6750 207° Southwest 193 222 7,100 -540 Level FlightAware ADS-B
08:00PM 39.9853 -104.6780 209° Southwest 188 216 7,000 -600 Descending FlightAware ADS-B
08:00PM 39.9822 -104.6800 206° Southwest 183 211 7,000 -780 Level FlightAware ADS-B
08:00PM 39.9791 -104.6810 194° South 179 206 6,900 -1,380 Descending FlightAware ADS-B
08:00PM 39.9751 -104.6830 201° Southwest 173 199 6,800 -1,200 Descending FlightAware ADS-B
08:00PM 39.9711 -104.6840 191° South 171 197 6,700 -840 Descending FlightAware ADS-B
08:00PM 39.9639 -104.6850 186° South 161 185 6,600 -840 Descending FlightAware ADS-B
08:00PM 39.9601 -104.6860 191° South 159 183 6,500 -720 Descending FlightAware ADS-B
08:01PM 39.9571 -104.6860 180° South 157 181 6,500 -720 Level FlightAware ADS-B
08:01PM 39.9473 -104.6860 180° South 154 177 6,300 -780 Descending FlightAware ADS-B
08:01PM 39.9401 -104.6860 180° South 157 181 6,200 -720 Descending FlightAware ADS-B
08:01PM 39.9342 -104.6860 180° South 161 185 6,100 -780 Descending FlightAware ADS-B
08:01PM 39.9276 -104.6860 180° South 164 189 6,000 -1,020 Descending FlightAware ADS-B
08:01PM 39.9205 -104.6870 186° South 165 190 5,800 -840 Descending FlightAware ADS-B
08:02PM 39.9106 -104.6870 180° South 162 186 5,700 -600 Descending FlightAware ADS-B
08:02PM 39.9051 -104.6870 180° South 158 182 5,600 -900 Descending FlightAware ADS-B
08:02PM 39.9004 -104.6870 180° South 155 178 5,500 -900 Descending FlightAware ADS-B
08:02PM 39.8951 -104.6870 180° South 157 181 5,400 -900 Descending FlightAware ADS-B